TimeCDT,TemperatureF,Dew PointF,Humidity,Sea Level PressureIn,VisibilityMPH,Wind Direction,Wind SpeedMPH,Gust SpeedMPH,PrecipitationIn,Events,Conditions,WindDirDegrees,DateUTC
12:15 AM,62.2,57.2,84,29.61,10.0,South,9.2,-,N/A,,Clear,190,2013-05-21 05:15:00
12:35 AM,62.1,57.6,85,29.62,10.0,South,5.8,-,N/A,,Clear,190,2013-05-21 05:35:00
12:55 AM,62.2,57.7,85,29.62,10.0,South,5.8,-,N/A,,Clear,190,2013-05-21 05:55:00
1:15 AM,62.6,58.3,86,29.62,10.0,SSW,6.9,-,N/A,,Clear,200,2013-05-21 06:15:00
1:35 AM,62.6,58.6,87,29.62,10.0,South,6.9,-,N/A,,Clear,170,2013-05-21 06:35:00
1:55 AM,62.6,59.4,89,29.62,10.0,South,6.9,-,N/A,,Clear,170,2013-05-21 06:55:00
2:15 AM,62.6,59.9,91,29.61,10.0,South,8.1,-,N/A,,Clear,170,2013-05-21 07:15:00
2:35 AM,62.2,59.9,92,29.61,10.0,South,8.1,-,N/A,,Clear,170,2013-05-21 07:35:00
2:55 AM,62.1,59.9,93,29.60,10.0,South,8.1,-,N/A,,Clear,170,2013-05-21 07:55:00
3:15 AM,61.7,59.4,92,29.60,10.0,South,6.9,-,N/A,,Clear,180,2013-05-21 08:15:00
3:35 AM,61.7,59.9,94,29.61,10.0,South,8.1,-,N/A,,Clear,170,2013-05-21 08:35:00
3:55 AM,61.7,59.7,93,29.60,10.0,South,8.1,-,N/A,,Scattered Clouds,170,2013-05-21 08:55:00
4:15 AM,61.7,59.5,93,29.61,10.0,SSW,6.9,-,N/A,,Scattered Clouds,200,2013-05-21 09:15:00
4:35 AM,61.7,59.5,93,29.61,10.0,SSW,8.1,-,N/A,,Scattered Clouds,200,2013-05-21 09:35:00
4:55 AM,61.2,58.3,90,29.62,10.0,SSW,9.2,-,N/A,,Clear,210,2013-05-21 09:55:00
5:15 AM,61.0,56.1,84,29.63,10.0,SW,8.1,-,N/A,,Clear,220,2013-05-21 10:15:00
5:35 AM,60.3,55.4,84,29.64,10.0,SW,9.2,-,N/A,,Clear,220,2013-05-21 10:35:00
5:55 AM,59.9,54.7,83,29.65,10.0,SW,8.1,-,N/A,,Clear,220,2013-05-21 10:55:00
6:15 AM,59.9,54.1,81,29.65,10.0,SW,9.2,-,N/A,,Clear,220,2013-05-21 11:15:00
6:35 AM,60.1,54.1,81,29.65,10.0,SW,9.2,-,N/A,,Clear,230,2013-05-21 11:35:00
6:55 AM,60.8,54.5,80,29.65,10.0,SW,9.2,-,N/A,,Mostly Cloudy,220,2013-05-21 11:55:00
7:15 AM,61.2,54.9,80,29.66,10.0,SW,11.5,-,N/A,,Mostly Cloudy,230,2013-05-21 12:15:00
7:35 AM,61.9,55.2,79,29.66,10.0,WSW,12.7,16.1,N/A,,Scattered Clouds,240,2013-05-21 12:35:00
7:55 AM,62.8,55.2,76,29.66,10.0,WSW,11.5,17.3,N/A,,Scattered Clouds,240,2013-05-21 12:55:00
8:15 AM,63.3,55.9,77,29.67,10.0,WSW,10.4,-,N/A,,Mostly Cloudy,240,2013-05-21 13:15:00
8:35 AM,63.5,56.5,78,29.67,10.0,WSW,10.4,16.1,N/A,,Overcast,240,2013-05-21 13:35:00
8:55 AM,63.5,56.3,77,29.68,10.0,WSW,10.4,-,N/A,,Overcast,240,2013-05-21 13:55:00
9:15 AM,63.9,56.7,77,29.69,10.0,WSW,6.9,-,N/A,,Overcast,240,2013-05-21 14:15:00
9:35 AM,65.8,56.1,71,29.69,10.0,WSW,10.4,16.1,N/A,,Mostly Cloudy,250,2013-05-21 14:35:00
9:55 AM,64.4,54.9,71,29.69,10.0,SW,11.5,18.4,N/A,,Overcast,220,2013-05-21 14:55:00
10:15 AM,64.8,55.8,73,29.70,10.0,SW,8.1,-,N/A,,Overcast,230,2013-05-21 15:15:00
10:35 AM,64.8,54.9,70,29.69,10.0,WSW,9.2,-,N/A,,Mostly Cloudy,240,2013-05-21 15:35:00
10:55 AM,67.3,54.7,64,29.69,10.0,SW,11.5,17.3,N/A,,Scattered Clouds,220,2013-05-21 15:55:00
11:15 AM,66.7,53.1,61,29.70,10.0,SW,13.8,-,N/A,,Scattered Clouds,230,2013-05-21 16:15:00
11:35 AM,68.0,52.3,57,29.69,10.0,SW,15.0,20.7,N/A,,Scattered Clouds,220,2013-05-21 16:35:00
11:55 AM,68.4,52.2,56,29.70,10.0,SW,10.4,19.6,N/A,,Scattered Clouds,230,2013-05-21 16:55:00
12:15 PM,67.8,52.5,58,29.70,10.0,SW,10.4,-,N/A,,Mostly Cloudy,230,2013-05-21 17:15:00
12:35 PM,68.5,53.1,58,29.70,10.0,WSW,9.2,18.4,N/A,,Mostly Cloudy,240,2013-05-21 17:35:00
12:55 PM,70.9,54.0,55,29.69,10.0,SW,12.7,17.3,N/A,,Scattered Clouds,220,2013-05-21 17:55:00
1:15 PM,71.6,52.9,52,29.69,10.0,WSW,12.7,-,N/A,,Scattered Clouds,250,2013-05-21 18:15:00
1:35 PM,71.4,53.8,54,29.69,10.0,SW,11.5,16.1,N/A,,Scattered Clouds,230,2013-05-21 18:35:00
1:55 PM,71.8,54.0,53,29.68,10.0,SSW,10.4,-,N/A,,Scattered Clouds,210,2013-05-21 18:55:00
2:15 PM,71.6,53.1,52,29.68,10.0,WSW,11.5,-,N/A,,Scattered Clouds,240,2013-05-21 19:15:00
2:35 PM,72.3,53.2,51,29.68,10.0,WSW,15.0,-,N/A,,Mostly Cloudy,240,2013-05-21 19:35:00
2:55 PM,72.3,52.5,50,29.68,10.0,SW,12.7,17.3,N/A,,Mostly Cloudy,230,2013-05-21 19:55:00
3:15 PM,72.3,50.9,47,29.68,10.0,SW,17.3,21.9,N/A,,Scattered Clouds,230,2013-05-21 20:15:00
3:35 PM,72.3,51.8,48,29.68,10.0,SW,12.7,24.2,N/A,,Scattered Clouds,230,2013-05-21 20:35:00
3:55 PM,71.8,50.5,47,29.68,10.0,WSW,11.5,-,N/A,,Mostly Cloudy,240,2013-05-21 20:55:00
4:15 PM,72.3,50.5,46,29.68,10.0,SW,11.5,21.9,N/A,,Scattered Clouds,230,2013-05-21 21:15:00
4:35 PM,72.0,51.1,48,29.69,10.0,WSW,11.5,18.4,N/A,,Scattered Clouds,240,2013-05-21 21:35:00
4:55 PM,72.9,51.1,46,29.67,10.0,WSW,13.8,-,N/A,,Mostly Cloudy,240,2013-05-21 21:55:00
5:15 PM,73.6,51.1,45,29.66,10.0,WSW,9.2,-,N/A,,Mostly Cloudy,240,2013-05-21 22:15:00
5:35 PM,71.4,50.0,47,29.67,10.0,WSW,10.4,19.6,N/A,,Mostly Cloudy,240,2013-05-21 22:35:00
5:55 PM,72.7,50.2,45,29.68,10.0,WSW,8.1,-,N/A,,Scattered Clouds,240,2013-05-21 22:55:00
6:15 PM,71.4,50.0,47,29.67,10.0,SW,10.4,17.3,N/A,,Scattered Clouds,230,2013-05-21 23:15:00
6:35 PM,71.2,50.2,47,29.67,10.0,WSW,9.2,-,N/A,,Mostly Cloudy,250,2013-05-21 23:35:00
6:55 PM,71.4,50.2,47,29.67,10.0,West,11.5,16.1,N/A,,Mostly Cloudy,260,2013-05-21 23:55:00
7:15 PM,70.2,49.1,47,29.68,10.0,West,12.7,20.7,N/A,,Mostly Cloudy,260,2013-05-22 00:15:00
7:35 PM,68.9,49.6,50,29.69,10.0,West,8.1,-,N/A,,Scattered Clouds,260,2013-05-22 00:35:00
7:55 PM,67.8,48.7,50,29.69,10.0,WSW,6.9,-,N/A,,Clear,240,2013-05-22 00:55:00
8:15 PM,66.6,48.7,53,29.69,10.0,WSW,6.9,-,N/A,,Clear,240,2013-05-22 01:15:00
8:35 PM,64.6,49.3,58,29.69,10.0,West,8.1,-,N/A,,Clear,260,2013-05-22 01:35:00
8:55 PM,63.7,48.6,58,29.69,10.0,West,9.2,-,N/A,,Clear,260,2013-05-22 01:55:00
9:15 PM,62.8,48.2,59,29.69,10.0,West,8.1,-,N/A,,Clear,270,2013-05-22 02:15:00
9:35 PM,61.9,48.4,61,29.69,10.0,WNW,5.8,-,N/A,,Clear,290,2013-05-22 02:35:00
9:55 PM,60.4,48.6,65,29.70,10.0,West,3.5,-,N/A,,Scattered Clouds,280,2013-05-22 02:55:00
10:15 PM,59.9,48.6,66,29.70,10.0,Calm,Calm,-,N/A,,Scattered Clouds,0,2013-05-22 03:15:00
10:35 PM,59.2,48.4,67,29.71,10.0,West,3.5,-,N/A,,Scattered Clouds,280,2013-05-22 03:35:00
10:55 PM,58.1,48.6,71,29.69,10.0,WNW,3.5,-,N/A,,Clear,300,2013-05-22 03:55:00
11:15 PM,57.7,49.5,74,29.70,10.0,Calm,Calm,-,N/A,,Clear,0,2013-05-22 04:15:00
11:35 PM,57.4,49.5,75,29.70,10.0,Calm,Calm,-,N/A,,Clear,0,2013-05-22 04:35:00
11:55 PM,57.9,48.6,71,29.68,10.0,Calm,Calm,-,N/A,,Clear,0,2013-05-22 04:55:00